• Join FlightAware (Why Join?)
  • Login
  • US Flag GB Flag 
17:53 EDT


 

Airport Tracker/Info


-or-


 

Live Flight TrackerFlight Track Log ✈ N7192Y ✈ 01-Sep-2013 ✈ 2G9 - KDAY

Flight Track Log - Related Links

Times and Time Zones

All times are in EDT time to prevent confusion due to time zone crossing. See the N7192Y flight status page for this flight to view local times or setup timezone preferences in your user account.

Time Position Orientation Groundspeed Altitude Reporting Facility
EDT Latitude Longitude Course Direction KTS MPH feet Rate Location/Type
15:19 40.0264 -79.1108 265° West 117 135 3,800  Level Cleveland Center
15:20 40.0269 -79.1542 271° West 114 131 4,500 660 Climbing Cleveland Center
15:21 40.0275 -79.1922 271° West 107 123 5,200 600 Climbing Cleveland Center
15:22 40.0278 -79.2303 271° West 107 123 5,800 420 Climbing Cleveland Center
15:23 40.0264 -79.2708 267° West 113 130 6,100 120 Climbing Cleveland Center
15:24 40.0269 -79.3197 271° West 139 160 6,100  Level Cleveland Center
15:25 40.0275 -79.3739 271° West 142 163 6,100  Level Cleveland Center
15:26 40.0258 -79.4256 268° West 144 166 6,100  Level Cleveland Center
15:27 40.0264 -79.4769 271° West 143 165 6,100  Level Cleveland Center
15:29 40.0328 -79.5592 276° West  Level FlightAware Approximate
15:36 40.0167 -79.9323 270° West  Level FlightAware Approximate
15:37 40.0167 -79.9857 270° West  Level FlightAware Approximate
15:38 40.0168 -80.0390 270° West  Level FlightAware Approximate
15:39 40.0168 -80.0924 270° West  Level FlightAware Approximate
15:40 40.0169 -80.1458 270° West  Level FlightAware Approximate
15:41 40.0169 -80.1991 270° West  Level FlightAware Approximate
15:41 40.0228 -80.1900 270° West 149 171 6,100  Level Cleveland Center
15:42 40.0169 -80.2525 270° West  Level FlightAware Approximate
15:42 40.0250 -80.2414 273° West 151 174 6,100  Level Cleveland Center
15:43 40.0231 -80.2903 267° West 153 176 6,100  Level Cleveland Center
15:44 40.0168 -80.3592 270° West  Level FlightAware Approximate
15:44 40.0211 -80.3392 267° West 147 169 6,100  Level Cleveland Center
15:45 40.0167 -80.4126 270° West  Level FlightAware Approximate
15:45 40.0192 -80.3906 267° West 142 163 6,100  Level Cleveland Center
15:46 40.0167 -80.4659 270° West  Level FlightAware Approximate
15:46 40.0211 -80.4422 273° West 142 163 6,100  Level Cleveland Center
15:47 40.0192 -80.4883 267° West 142 163 6,100  Level Cleveland Center
15:48 40.0172 -80.5369 267° West 142 163 6,100  Level Cleveland Center
15:49 40.0172 -80.5858 270° West 142 163 6,100  Level Cleveland Center
15:50 40.0150 -80.6347 267° West 142 163 6,100  Level Cleveland Center
15:51 40.0150 -80.6861 270° West 142 163 6,100  Level Cleveland Center
15:52 40.0150 -80.7347 270° West 142 163 6,100  Level Cleveland Center
15:53 40.0128 -80.7864 267° West 142 163 6,100  Level Cleveland Center
15:54 40.0128 -80.8350 270° West 142 163 6,100  Level Cleveland Center
15:55 40.0125 -80.8839 270° West 142 163 6,100  Level Cleveland Center
15:56 40.0103 -80.9356 267° West 142 163 6,100  Level Cleveland Center
15:57 40.0103 -80.9869 270° West 142 163 6,100  Level Cleveland Center
15:58 40.0100 -81.0331 270° West 142 163 6,100 -60 Level Cleveland Center
15:59 40.0056 -81.0844 264° West 142 163 6,000 -60 Descending Cleveland Center
16:00 40.0075 -81.1361 273° West 142 163 6,000  Level Cleveland Center
16:01 40.0050 -81.1847 266° West 142 163 6,000  Level Cleveland Center
16:02 40.0047 -81.2364 270° West 142 163 6,000  Level Cleveland Center
16:03 40.0025 -81.2850 267° West 142 163 6,000  Level Cleveland Center
16:04 39.9983 -81.3622 266° West 140 161 6,000  Level Indianapolis Center
16:05 39.9969 -81.4158 268° West 146 168 6,000  Level Indianapolis Center
16:06 39.9961 -81.4675 269° West 144 166 6,000  Level Indianapolis Center
16:07 39.9947 -81.5194 268° West 143 165 6,000  Level Indianapolis Center
16:08 39.9931 -81.5700 268° West 139 160 6,100  Climbing Indianapolis Center
16:09 39.9928 -81.6222 270° West 141 162 6,100  Level Indianapolis Center
16:10 39.9906 -81.6736 267° West 141 162 6,100  Level Indianapolis Center
16:11 39.9894 -81.7258 268° West 141 162 6,100  Level Indianapolis Center
16:12 39.9886 -81.7792 269° West 141 162 6,100  Level Indianapolis Center
16:13 39.9867 -81.8300 267° West 140 161 6,100  Level Indianapolis Center
16:14 39.9858 -81.8814 269° West 140 161 6,100  Level Indianapolis Center
16:15 39.9847 -81.9314 268° West 140 161 6,100  Level Indianapolis Center
16:16 39.9831 -81.9817 268° West 138 159 6,100  Level Indianapolis Center
16:17 39.9814 -82.0331 268° West 142 163 6,100  Level Indianapolis Center
16:18 39.9800 -82.0933 268° West 140 161 6,100  Level Indianapolis Center
16:19 39.9797 -82.1203 269° West 140 161 6,100  Level Indianapolis Center
16:19 39.9778 -82.1442 264° West 140 161 6,100  Level Indianapolis Center
16:20 39.9761 -82.1950 268° West 143 165 6,100  Level Indianapolis Center
16:21 39.9758 -82.2450 270° West 139 160 6,100  Level Indianapolis Center
16:22 39.9744 -82.2750 267° West 138 159 6,100  Level Indianapolis Center
16:23 39.9736 -82.3294 269° West 137 158 6,100  Level Indianapolis Center
16:24 39.9722 -82.3703 267° West 136 157 6,100  Level Indianapolis Center
16:25 39.9706 -82.3931 265° West 138 159 6,100  Level Indianapolis Center
16:26 39.9692 -82.4428 268° West 138 159 6,100  Level Indianapolis Center
16:27 39.9694 -82.4917 270° West 136 157 6,100  Level Indianapolis Center
16:28 39.9739 -82.5414 277° West 138 159 6,100  Level Indianapolis Center
16:28 39.9725 -82.5750 267° West 138 159 6,100  Level Indianapolis Center
16:29 39.9692 -82.6317 266° West 137 158 6,100  Level Indianapolis Center
16:30 39.9669 -82.6806 267° West 134 154 6,100  Level Indianapolis Center
16:31 39.9644 -82.7292 266° West 133 153 6,100  Level Indianapolis Center
16:32 39.9606 -82.7722 263° West 134 154 6,100  Level Indianapolis Center
16:33 39.9603 -82.7947 269° West 135 155 6,100  Level Indianapolis Center
16:34 39.9600 -82.8442 270° West 136 157 6,100  Level Indianapolis Center
16:35 39.9603 -82.8936 270° West 136 157 6,100  Level Indianapolis Center
16:36 39.9586 -82.9419 267° West 135 155 6,100  Level Indianapolis Center
16:37 39.9550 -82.9911 265° West 136 157 6,100  Level Indianapolis Center
16:38 39.9533 -83.0397 267° West 134 154 6,100  Level Indianapolis Center
16:39 39.9503 -83.0967 266° West 133 153 6,100  Level Indianapolis Center
16:39 39.9483 -83.1197 264° West 131 151 6,100  Level Indianapolis Center
16:40 39.9483 -83.1633 270° West 131 151 6,100  Level Indianapolis Center
16:41 39.9461 -83.1917 264° West 133 153 6,100  Level Indianapolis Center
16:42 39.9444 -83.2392 267° West 132 152 6,100  Level Indianapolis Center
16:43 39.9425 -83.2878 267° West 133 153 6,100  Level Indianapolis Center
16:43 39.9419 -83.3153 268° West 132 152 6,100  Level Indianapolis Center
16:44 39.9406 -83.3356 265° West 133 153 6,100  Level Indianapolis Center
16:45 39.9386 -83.3825 267° West 132 152 6,100  Level Indianapolis Center
16:46 39.9375 -83.4303 268° West 133 153 6,100  Level Indianapolis Center
16:47 39.9397 -83.4864 273° West 132 152 6,100  Level Indianapolis Center
16:48 39.9411 -83.5336 272° West 132 152 6,100 -60 Level Indianapolis Center
16:49 39.9428 -83.5811 273° West 132 152 6,000 -420 Descending Indianapolis Center
16:50 39.9406 -83.6333 267° West 139 160 5,300 -660 Descending Indianapolis Center
16:51 39.9422 -83.6917 272° West 151 174 4,700 -660 Descending Indianapolis Center
16:52 39.9431 -83.7500 271° West 158 182 4,000 -660 Descending Indianapolis Center
16:53 39.9433 -83.8092 270° West 161 185 3,400 -480 Descending Indianapolis Center
16:54 39.9444 -83.8778 271° West 160 184 3,100 -180 Descending Indianapolis Center
16:55 39.9447 -83.9308 270° West 154 177 3,100  Level Indianapolis Center
16:56 39.9464 -83.9822 272° West 149 171 3,100  Level Indianapolis Center
16:57 39.9461 -84.0300 270° West 141 162 3,100 -60 Level Indianapolis Center
16:58 39.9469 -84.0758 271° West 133 153 3,000 -180 Descending Indianapolis Center
16:59 39.9469 -84.1164 270° West 123 142 2,800 -480 Descending Indianapolis Center
17:00 39.9308 -84.1458 234° Southwest 107 123 2,100 -420 Descending Indianapolis Center
17:01 39.9144 -84.1728 232° Southwest 105 121 2,000 -480 Descending Indianapolis Center
17:02 39.9072 -84.1917 244° Southwest 77 89 1,400 -1,080 Descending Indianapolis Center
17:04 39.9000 -84.2167 267° West  Level FlightAware Approximate
17:11 39.9022 -84.2194 267° West  Level Estimated